Time,TemperatureF,DewpointF,PressureIn,WindDirection,WindDirectionDegrees,WindSpeedMPH,WindSpeedGustMPH,Humidity,HourlyPrecipIn,Conditions,Clouds,dailyrainin,SoftwareType,DateUTC
2013-03-04 00:00:00,26.0,14.0,30.21,NW,320,2.0,2.0,60,0.00,,,0.00,Wunderground v.1.15,2013-03-04 05:00:00,
2013-03-04 00:01:00,26.0,14.0,30.21,WSW,248,2.0,3.0,60,0.00,,,0.00,Wunderground v.1.15,2013-03-04 05:01:00,
2013-03-04 00:03:00,26.0,14.0,30.21,WSW,244,2.0,3.0,60,0.00,,,0.00,Wunderground v.1.15,2013-03-04 05:03:00,
2013-03-04 00:09:00,25.9,13.9,30.21,SW,236,2.0,4.0,60,0.00,,,0.00,Wunderground v.1.15,2013-03-04 05:09:00,
2013-03-04 00:10:00,25.9,13.9,30.21,West,265,1.0,1.0,60,0.00,,,0.00,Wunderground v.1.15,2013-03-04 05:10:00,
2013-03-04 00:16:00,25.9,13.9,30.21,SSW,209,2.0,5.0,60,0.00,,,0.00,Wunderground v.1.15,2013-03-04 05:16:00,
2013-03-04 00:22:00,25.8,13.8,30.22,SW,217,2.0,2.0,60,0.00,,,0.00,Wunderground v.1.15,2013-03-04 05:22:00,
2013-03-04 00:27:00,25.8,14.2,30.22,WSW,237,2.0,3.0,61,0.00,,,0.00,Wunderground v.1.15,2013-03-04 05:27:00,
2013-03-04 00:33:00,25.8,14.2,30.22,SSW,207,2.0,2.0,61,0.00,,,0.00,Wunderground v.1.15,2013-03-04 05:33:00,
2013-03-04 00:38:00,25.7,14.1,30.22,WSW,250,1.0,2.0,61,0.00,,,0.00,Wunderground v.1.15,2013-03-04 05:38:00,
2013-03-04 00:44:00,25.7,14.1,30.23,NNE,16,1.0,3.0,61,0.00,,,0.00,Wunderground v.1.15,2013-03-04 05:44:00,
2013-03-04 00:51:00,25.6,14.4,30.23,SSW,206,1.0,1.0,62,0.00,,,0.00,Wunderground v.1.15,2013-03-04 05:51:00,
2013-03-04 00:57:00,25.5,14.3,30.23,WSW,247,0.0,7.0,62,0.00,,,0.00,Wunderground v.1.15,2013-03-04 05:57:00,
2013-03-04 01:02:00,25.6,13.6,30.23,WSW,257,1.0,1.0,60,0.00,,,0.00,Wunderground v.1.15,2013-03-04 06:02:00,
2013-03-04 01:07:00,25.6,14.0,30.23,NW,319,1.0,4.0,61,0.00,,,0.00,Wunderground v.1.15,2013-03-04 06:07:00,
2013-03-04 01:13:00,25.6,14.0,30.22,SW,220,2.0,4.0,61,0.00,,,0.00,Wunderground v.1.15,2013-03-04 06:13:00,
2013-03-04 01:19:00,25.7,13.7,30.23,SSW,202,2.0,4.0,60,0.00,,,0.00,Wunderground v.1.15,2013-03-04 06:19:00,
2013-03-04 01:24:00,25.7,14.1,30.23,SSE,149,1.0,3.0,61,0.00,,,0.00,Wunderground v.1.15,2013-03-04 06:24:00,
2013-03-04 01:30:00,25.7,13.3,30.22,South,177,1.0,1.0,59,0.00,,,0.00,Wunderground v.1.15,2013-03-04 06:30:00,
2013-03-04 01:35:00,25.6,13.6,30.22,SE,142,1.0,2.0,60,0.00,,,0.00,Wunderground v.1.15,2013-03-04 06:35:00,
2013-03-04 01:41:00,25.7,13.3,30.23,SW,230,1.0,1.0,59,0.00,,,0.00,Wunderground v.1.15,2013-03-04 06:41:00,
2013-03-04 01:51:00,25.8,13.4,30.25,WNW,302,1.0,1.0,59,0.00,,,0.00,Wunderground v.1.15,2013-03-04 06:51:00,
2013-03-04 01:56:00,25.8,13.8,30.25,WNW,284,1.0,4.0,60,0.00,,,0.00,Wunderground v.1.15,2013-03-04 06:56:00,
2013-03-04 02:01:00,25.7,14.1,30.25,West,275,1.0,1.0,61,0.00,,,0.00,Wunderground v.1.15,2013-03-04 07:01:00,
2013-03-04 02:07:00,25.4,13.8,30.26,ENE,68,1.0,2.0,61,0.00,,,0.00,Wunderground v.1.15,2013-03-04 07:07:00,
2013-03-04 02:12:00,25.3,14.1,30.26,ENE,68,0.0,1.0,62,0.00,,,0.00,Wunderground v.1.15,2013-03-04 07:12:00,
2013-03-04 02:18:00,25.2,14.4,30.25,NNW,336,0.0,2.0,63,0.00,,,0.00,Wunderground v.1.15,2013-03-04 07:18:00,
2013-03-04 02:24:00,25.2,14.4,30.25,WSW,257,1.0,1.0,63,0.00,,,0.00,Wunderground v.1.15,2013-03-04 07:24:00,
2013-03-04 02:30:00,25.2,14.4,30.25,NW,323,1.0,1.0,63,0.00,,,0.00,Wunderground v.1.15,2013-03-04 07:30:00,
2013-03-04 02:36:00,25.2,14.0,30.25,NW,306,1.0,3.0,62,0.00,,,0.00,Wunderground v.1.15,2013-03-04 07:36:00,
2013-03-04 02:42:00,25.3,14.5,30.26,WNW,299,1.0,2.0,63,0.00,,,0.00,Wunderground v.1.15,2013-03-04 07:42:00,
2013-03-04 02:51:00,25.3,14.5,30.25,SSW,206,1.0,1.0,63,0.00,,,0.00,Wunderground v.1.15,2013-03-04 07:51:00,
2013-03-04 02:56:00,25.1,14.6,30.26,NW,326,1.0,3.0,64,0.00,,,0.00,Wunderground v.1.15,2013-03-04 07:56:00,
2013-03-04 03:02:00,24.9,14.4,30.26,NNW,327,1.0,6.0,64,0.00,,,0.00,Wunderground v.1.15,2013-03-04 08:02:00,
2013-03-04 03:08:00,24.8,15.0,30.25,NNW,336,1.0,6.0,66,0.00,,,0.00,Wunderground v.1.15,2013-03-04 08:08:00,
2013-03-04 03:14:00,24.8,14.3,30.25,WSW,244,0.0,1.0,64,0.00,,,0.00,Wunderground v.1.15,2013-03-04 08:14:00,
2013-03-04 03:19:00,24.6,15.2,30.25,WNW,288,0.0,1.0,67,0.00,,,0.00,Wunderground v.1.15,2013-03-04 08:19:00,
2013-03-04 03:24:00,24.2,15.2,30.26,NNW,329,0.0,2.0,68,0.00,,,0.00,Wunderground v.1.15,2013-03-04 08:24:00,
2013-03-04 03:30:00,23.8,15.1,30.25,NW,324,0.0,0.0,69,0.00,,,0.00,Wunderground v.1.15,2013-03-04 08:30:00,
2013-03-04 03:36:00,23.4,15.1,30.26,NW,324,0.0,0.0,70,0.00,,,0.00,Wunderground v.1.15,2013-03-04 08:36:00,
2013-03-04 03:42:00,23.4,14.0,30.26,ENE,57,0.0,1.0,67,0.00,,,0.00,Wunderground v.1.15,2013-03-04 08:42:00,
2013-03-04 03:51:00,23.6,14.9,30.27,NE,37,0.0,1.0,69,0.00,,,0.00,Wunderground v.1.15,2013-03-04 08:51:00,
2013-03-04 03:56:00,23.8,14.8,30.27,NNE,19,0.0,4.0,68,0.00,,,0.00,Wunderground v.1.15,2013-03-04 08:56:00,
2013-03-04 04:02:00,24.0,15.3,30.28,North,355,1.0,1.0,69,0.00,,,0.00,Wunderground v.1.15,2013-03-04 09:02:00,
2013-03-04 04:08:00,23.9,14.5,30.28,WNW,299,1.0,1.0,67,0.00,,,0.00,Wunderground v.1.15,2013-03-04 09:08:00,
2013-03-04 04:13:00,23.9,15.2,30.28,WNW,299,0.0,0.0,69,0.00,,,0.00,Wunderground v.1.15,2013-03-04 09:13:00,
2013-03-04 04:18:00,23.6,14.9,30.28,NNW,329,0.0,1.0,69,0.00,,,0.00,Wunderground v.1.15,2013-03-04 09:18:00,
2013-03-04 04:23:00,23.3,14.6,30.28,NW,325,0.0,1.0,69,0.00,,,0.00,Wunderground v.1.15,2013-03-04 09:23:00,
2013-03-04 04:28:00,23.2,14.5,30.29,SW,235,0.0,1.0,69,0.00,,,0.00,Wunderground v.1.15,2013-03-04 09:28:00,
2013-03-04 04:33:00,23.5,15.1,30.29,NW,313,0.0,2.0,70,0.00,,,0.00,Wunderground v.1.15,2013-03-04 09:33:00,
2013-03-04 04:38:00,23.7,14.7,30.30,WSW,237,0.0,2.0,68,0.00,,,0.00,Wunderground v.1.15,2013-03-04 09:38:00,
2013-03-04 04:44:00,24.1,14.7,30.30,NNW,329,0.0,1.0,67,0.00,,,0.00,Wunderground v.1.15,2013-03-04 09:44:00,
2013-03-04 04:51:00,24.1,15.1,30.30,NW,323,1.0,1.0,68,0.00,,,0.00,Wunderground v.1.15,2013-03-04 09:51:00,
2013-03-04 04:56:00,23.6,14.9,30.30,NW,323,0.0,3.0,69,0.00,,,0.00,Wunderground v.1.15,2013-03-04 09:56:00,
2013-03-04 05:01:00,23.2,15.2,30.30,NW,314,0.0,1.0,71,0.00,,,0.00,Wunderground v.1.15,2013-03-04 10:01:00,
2013-03-04 05:07:00,23.0,15.6,30.31,NNW,331,0.0,3.0,73,0.00,,,0.00,Wunderground v.1.15,2013-03-04 10:07:00,
2013-03-04 05:12:00,22.6,14.9,30.31,NNW,331,0.0,0.0,72,0.00,,,0.00,Wunderground v.1.15,2013-03-04 10:12:00,
2013-03-04 05:18:00,22.4,15.4,30.31,NNW,331,0.0,1.0,74,0.00,,,0.00,Wunderground v.1.15,2013-03-04 10:18:00,
2013-03-04 05:23:00,22.2,14.5,30.31,NNW,331,0.0,2.0,72,0.00,,,0.00,Wunderground v.1.15,2013-03-04 10:23:00,
2013-03-04 05:29:00,22.1,14.4,30.31,NNW,329,0.0,2.0,72,0.00,,,0.00,Wunderground v.1.15,2013-03-04 10:29:00,
2013-03-04 05:34:00,22.1,14.8,30.31,NNW,329,0.0,0.0,73,0.00,,,0.00,Wunderground v.1.15,2013-03-04 10:34:00,
2013-03-04 05:40:00,22.0,14.7,30.31,NNW,329,0.0,0.0,73,0.00,,,0.00,Wunderground v.1.15,2013-03-04 10:40:00,
2013-03-04 05:45:00,22.2,14.5,30.30,SSW,207,0.0,6.0,72,0.00,,,0.00,Wunderground v.1.15,2013-03-04 10:45:00,
2013-03-04 05:51:00,22.3,15.3,30.31,NW,324,1.0,1.0,74,0.00,,,0.00,Wunderground v.1.15,2013-03-04 10:51:00,
2013-03-04 05:56:00,22.4,14.7,30.30,NW,310,0.0,2.0,72,0.00,,,0.00,Wunderground v.1.15,2013-03-04 10:56:00,
2013-03-04 06:01:00,22.6,15.6,30.30,NW,310,0.0,1.0,74,0.00,,,0.00,Wunderground v.1.15,2013-03-04 11:01:00,
2013-03-04 06:06:00,22.4,15.4,30.30,NNW,329,0.0,1.0,74,0.00,,,0.00,Wunderground v.1.15,2013-03-04 11:06:00,
2013-03-04 06:12:00,22.2,15.2,30.30,NNW,329,0.0,0.0,74,0.00,,,0.00,Wunderground v.1.15,2013-03-04 11:12:00,
2013-03-04 06:17:00,22.3,14.0,30.30,SSW,202,0.0,4.0,70,0.00,,,0.00,Wunderground v.1.15,2013-03-04 11:17:00,
2013-03-04 06:23:00,22.5,15.5,30.31,NNW,338,1.0,1.0,74,0.00,,,0.00,Wunderground v.1.15,2013-03-04 11:23:00,
2013-03-04 06:28:00,22.3,14.3,30.32,NNW,339,1.0,1.0,71,0.00,,,0.00,Wunderground v.1.15,2013-03-04 11:28:00,
2013-03-04 06:34:00,21.9,14.9,30.32,NNW,339,0.0,1.0,74,0.00,,,0.00,Wunderground v.1.15,2013-03-04 11:34:00,
2013-03-04 06:40:00,21.7,14.7,30.32,NNW,339,0.0,1.0,74,0.00,,,0.00,Wunderground v.1.15,2013-03-04 11:40:00,
2013-03-04 06:51:00,22.2,14.9,30.31,SW,224,1.0,1.0,73,0.00,,,0.00,Wunderground v.1.15,2013-03-04 11:51:00,
2013-03-04 06:56:00,22.7,14.1,30.32,NW,310,1.0,3.0,69,0.00,,,0.00,Wunderground v.1.15,2013-03-04 11:56:00,
2013-03-04 07:01:00,22.8,14.8,30.31,NW,310,1.0,1.0,71,0.00,,,0.00,Wunderground v.1.15,2013-03-04 12:01:00,
2013-03-04 07:07:00,22.7,14.7,30.31,NW,309,0.0,1.0,71,0.00,,,0.00,Wunderground v.1.15,2013-03-04 12:07:00,
2013-03-04 07:12:00,22.6,14.9,30.31,NW,314,0.0,2.0,72,0.00,,,0.00,Wunderground v.1.15,2013-03-04 12:12:00,
2013-03-04 07:18:00,22.2,14.5,30.32,NW,314,0.0,2.0,72,0.00,,,0.00,Wunderground v.1.15,2013-03-04 12:18:00,
2013-03-04 07:23:00,22.0,14.3,30.32,NW,317,0.0,2.0,72,0.00,,,0.00,Wunderground v.1.15,2013-03-04 12:23:00,
2013-03-04 07:29:00,22.0,14.7,30.33,NW,317,0.0,2.0,73,0.00,,,0.00,Wunderground v.1.15,2013-03-04 12:29:00,
2013-03-04 07:34:00,22.1,14.8,30.33,NW,317,0.0,0.0,73,0.00,,,0.00,Wunderground v.1.15,2013-03-04 12:34:00,
2013-03-04 07:40:00,22.3,15.6,30.34,NW,317,0.0,1.0,75,0.00,,,0.00,Wunderground v.1.15,2013-03-04 12:40:00,
2013-03-04 07:51:00,23.6,14.2,30.35,SSE,163,0.0,0.0,67,0.00,,,0.00,Wunderground v.1.15,2013-03-04 12:51:00,
2013-03-04 07:56:00,24.9,14.4,30.35,NNW,344,0.0,4.0,64,0.00,,,0.00,Wunderground v.1.15,2013-03-04 12:56:00,
2013-03-04 08:02:00,26.2,14.6,30.34,ENE,67,1.0,1.0,61,0.00,,,0.00,Wunderground v.1.15,2013-03-04 13:02:00,
2013-03-04 08:07:00,27.1,13.9,30.35,West,269,1.0,2.0,57,0.00,,,0.00,Wunderground v.1.15,2013-03-04 13:07:00,
2013-03-04 08:12:00,27.9,13.4,30.35,WSW,250,1.0,2.0,54,0.00,,,0.00,Wunderground v.1.15,2013-03-04 13:12:00,
2013-03-04 08:18:00,28.7,14.1,30.36,WSW,238,1.0,2.0,54,0.00,,,0.00,Wunderground v.1.15,2013-03-04 13:18:00,
2013-03-04 08:24:00,29.2,13.7,30.36,North,10,1.0,4.0,52,0.00,,,0.00,Wunderground v.1.15,2013-03-04 13:24:00,
2013-03-04 08:30:00,29.6,13.2,30.36,WNW,298,2.0,3.0,50,0.00,,,0.00,Wunderground v.1.15,2013-03-04 13:30:00,
2013-03-04 08:36:00,30.1,13.2,30.36,West,272,2.0,4.0,49,0.00,,,0.00,Wunderground v.1.15,2013-03-04 13:36:00,
2013-03-04 08:41:00,30.3,12.5,30.36,WNW,290,1.0,2.0,47,0.00,,,0.00,Wunderground v.1.15,2013-03-04 13:41:00,
2013-03-04 08:51:00,30.8,12.4,30.36,West,272,2.0,2.0,46,0.00,,,0.00,Wunderground v.1.15,2013-03-04 13:51:00,
2013-03-04 08:56:00,31.4,13.5,30.37,SW,230,1.0,4.0,47,0.00,,,0.00,Wunderground v.1.15,2013-03-04 13:56:00,
2013-03-04 09:01:00,31.9,12.9,30.36,WSW,246,1.0,4.0,45,0.00,,,0.00,Wunderground v.1.15,2013-03-04 14:01:00,
2013-03-04 09:06:00,32.3,12.8,30.36,WSW,248,2.0,4.0,44,0.00,,,0.00,Wunderground v.1.15,2013-03-04 14:06:00,
2013-03-04 09:12:00,33.0,12.4,30.36,WSW,249,2.0,2.0,42,0.00,,,0.00,Wunderground v.1.15,2013-03-04 14:12:00,
2013-03-04 09:18:00,33.7,12.5,30.36,SE,128,1.0,2.0,41,0.00,,,0.00,Wunderground v.1.15,2013-03-04 14:18:00,
2013-03-04 09:24:00,34.2,11.8,30.36,North,355,1.0,2.0,39,0.00,,,0.00,Wunderground v.1.15,2013-03-04 14:24:00,
2013-03-04 09:29:00,34.5,12.1,30.36,South,184,1.0,2.0,39,0.00,,,0.00,Wunderground v.1.15,2013-03-04 14:29:00,
2013-03-04 09:35:00,35.0,11.9,30.36,WNW,294,1.0,2.0,38,0.00,,,0.00,Wunderground v.1.15,2013-03-04 14:35:00,
2013-03-04 09:41:00,35.2,12.1,30.36,WNW,296,1.0,1.0,38,0.00,,,0.00,Wunderground v.1.15,2013-03-04 14:41:00,
2013-03-04 09:51:00,36.4,11.9,30.36,NNE,23,1.0,1.0,36,0.00,,,0.00,Wunderground v.1.15,2013-03-04 14:51:00,
2013-03-04 09:56:00,37.3,13.4,30.36,NNE,14,1.0,3.0,37,0.00,,,0.00,Wunderground v.1.15,2013-03-04 14:56:00,
2013-03-04 10:01:00,38.1,12.8,30.36,West,269,0.0,2.0,35,0.00,,,0.00,Wunderground v.1.15,2013-03-04 15:01:00,
2013-03-04 10:06:00,38.6,12.6,30.36,NNW,341,1.0,3.0,34,0.00,,,0.00,Wunderground v.1.15,2013-03-04 15:06:00,
2013-03-04 10:12:00,38.8,12.1,30.36,WSW,246,1.0,7.0,33,0.00,,,0.00,Wunderground v.1.15,2013-03-04 15:12:00,
2013-03-04 10:17:00,38.9,11.5,30.35,SSW,202,1.0,7.0,32,0.00,,,0.00,Wunderground v.1.15,2013-03-04 15:17:00,
2013-03-04 10:23:00,39.3,11.9,30.35,NE,37,2.0,4.0,32,0.00,,,0.00,Wunderground v.1.15,2013-03-04 15:23:00,
2013-03-04 10:29:00,39.7,12.9,30.35,NW,309,2.0,4.0,33,0.00,,,0.00,Wunderground v.1.15,2013-03-04 15:29:00,
2013-03-04 10:35:00,40.2,12.6,30.36,NW,305,1.0,3.0,32,0.00,,,0.00,Wunderground v.1.15,2013-03-04 15:35:00,
2013-03-04 10:41:00,41.0,14.1,30.36,WSW,255,1.0,1.0,33,0.00,,,0.00,Wunderground v.1.15,2013-03-04 15:41:00,
2013-03-04 10:51:00,42.0,13.5,30.36,NNW,341,1.0,1.0,31,0.00,,,0.00,Wunderground v.1.15,2013-03-04 15:51:00,
2013-03-04 10:56:00,42.4,13.1,30.36,NNE,26,1.0,3.0,30,0.00,,,0.00,Wunderground v.1.15,2013-03-04 15:56:00,
2013-03-04 11:02:00,42.5,12.4,30.35,NNE,25,2.0,3.0,29,0.00,,,0.00,Wunderground v.1.15,2013-03-04 16:02:00,
2013-03-04 11:07:00,42.4,13.9,30.35,NW,318,1.0,3.0,31,0.00,,,0.00,Wunderground v.1.15,2013-03-04 16:07:00,
2013-03-04 11:12:00,43.1,13.7,30.36,NW,313,1.0,3.0,30,0.00,,,0.00,Wunderground v.1.15,2013-03-04 16:12:00,
2013-03-04 11:18:00,43.1,12.9,30.36,SSE,155,2.0,3.0,29,0.00,,,0.00,Wunderground v.1.15,2013-03-04 16:18:00,
2013-03-04 11:23:00,43.3,13.1,30.35,North,351,2.0,3.0,29,0.00,,,0.00,Wunderground v.1.15,2013-03-04 16:23:00,
2013-03-04 11:29:00,44.3,14.0,30.35,ESE,119,1.0,3.0,29,0.00,,,0.00,Wunderground v.1.15,2013-03-04 16:29:00,
2013-03-04 11:34:00,45.0,14.6,30.35,North,360,1.0,1.0,29,0.00,,,0.00,Wunderground v.1.15,2013-03-04 16:34:00,
2013-03-04 11:40:00,45.4,14.9,30.35,NNW,328,1.0,1.0,29,0.00,,,0.00,Wunderground v.1.15,2013-03-04 16:40:00,
2013-03-04 11:51:00,45.9,16.9,30.35,NNW,346,2.0,3.0,31,0.00,,,0.00,Wunderground v.1.15,2013-03-04 16:51:00,
2013-03-04 11:56:00,46.7,17.6,30.34,WNW,303,1.0,5.0,31,0.00,,,0.00,Wunderground v.1.15,2013-03-04 16:56:00,
2013-03-04 12:01:00,47.0,15.5,30.34,North,5,1.0,1.0,28,0.00,,,0.00,Wunderground v.1.15,2013-03-04 17:01:00,
2013-03-04 12:07:00,47.3,15.8,30.33,NW,323,1.0,3.0,28,0.00,,,0.00,Wunderground v.1.15,2013-03-04 17:07:00,
2013-03-04 12:13:00,47.1,16.4,30.33,NNW,334,1.0,3.0,29,0.00,,,0.00,Wunderground v.1.15,2013-03-04 17:13:00,
2013-03-04 12:19:00,47.1,16.4,30.32,SSW,194,1.0,4.0,29,0.00,,,0.00,Wunderground v.1.15,2013-03-04 17:19:00,
2013-03-04 12:25:00,47.4,17.5,30.31,SSW,207,1.0,4.0,30,0.00,,,0.00,Wunderground v.1.15,2013-03-04 17:25:00,
2013-03-04 12:30:00,47.9,17.1,30.31,NE,44,1.0,2.0,29,0.00,,,0.00,Wunderground v.1.15,2013-03-04 17:30:00,
2013-03-04 12:36:00,48.9,18.0,30.30,North,360,1.0,2.0,29,0.00,,,0.00,Wunderground v.1.15,2013-03-04 17:36:00,
2013-03-04 12:41:00,48.7,16.2,30.30,ENE,64,2.0,2.0,27,0.00,,,0.00,Wunderground v.1.15,2013-03-04 17:41:00,
2013-03-04 12:51:00,47.7,16.1,30.29,ENE,71,3.0,4.0,28,0.00,,,0.00,Wunderground v.1.15,2013-03-04 17:51:00,
2013-03-04 12:56:00,47.7,16.9,30.28,ESE,103,3.0,6.0,29,0.00,,,0.00,Wunderground v.1.15,2013-03-04 17:56:00,
2013-03-04 13:02:00,48.3,17.5,30.28,East,90,2.0,2.0,29,0.00,,,0.00,Wunderground v.1.15,2013-03-04 18:02:00,
2013-03-04 13:08:00,48.9,17.2,30.28,East,83,2.0,5.0,28,0.00,,,0.00,Wunderground v.1.15,2013-03-04 18:08:00,
2013-03-04 13:13:00,48.9,18.0,30.27,East,86,3.0,6.0,29,0.00,,,0.00,Wunderground v.1.15,2013-03-04 18:13:00,
2013-03-04 13:19:00,50.1,18.2,30.28,WSW,238,2.0,6.0,28,0.00,,,0.00,Wunderground v.1.15,2013-03-04 18:19:00,
2013-03-04 13:24:00,50.6,17.8,30.27,North,11,2.0,6.0,27,0.00,,,0.00,Wunderground v.1.15,2013-03-04 18:24:00,
2013-03-04 13:29:00,50.8,18.0,30.27,East,95,2.0,6.0,27,0.00,,,0.00,Wunderground v.1.15,2013-03-04 18:29:00,
2013-03-04 13:30:00,50.9,18.9,30.27,East,95,2.0,2.0,28,0.00,,,0.00,Wunderground v.1.15,2013-03-04 18:30:00,
2013-03-04 13:33:00,51.3,19.3,30.26,WNW,292,2.0,4.0,28,0.00,,,0.00,Wunderground v.1.15,2013-03-04 18:33:00,
2013-03-04 13:35:00,51.1,18.2,30.26,NW,320,2.0,4.0,27,0.00,,,0.00,Wunderground v.1.15,2013-03-04 18:35:00,
2013-03-04 13:41:00,51.2,19.2,30.26,ESE,107,2.0,7.0,28,0.00,,,0.00,Wunderground v.1.15,2013-03-04 18:41:00,
2013-03-04 13:51:00,51.2,20.0,30.25,ESE,103,2.0,3.0,29,0.00,,,0.00,Wunderground v.1.15,2013-03-04 18:51:00,
2013-03-04 13:56:00,51.3,20.1,30.25,ENE,78,1.0,6.0,29,0.00,,,0.00,Wunderground v.1.15,2013-03-04 18:56:00,
2013-03-04 14:02:00,51.5,20.2,30.25,East,85,2.0,5.0,29,0.00,,,0.00,Wunderground v.1.15,2013-03-04 19:02:00,
2013-03-04 14:07:00,51.6,21.1,30.24,ESE,109,2.0,5.0,30,0.00,,,0.00,Wunderground v.1.15,2013-03-04 19:07:00,
2013-03-04 14:12:00,51.8,20.5,30.23,ESE,105,2.0,4.0,29,0.00,,,0.00,Wunderground v.1.15,2013-03-04 19:12:00,
2013-03-04 14:18:00,51.6,21.1,30.23,ENE,72,2.0,4.0,30,0.00,,,0.00,Wunderground v.1.15,2013-03-04 19:18:00,
2013-03-04 14:24:00,52.0,21.5,30.23,East,84,1.0,4.0,30,0.00,,,0.00,Wunderground v.1.15,2013-03-04 19:24:00,
2013-03-04 14:30:00,52.0,21.5,30.23,East,80,1.0,1.0,30,0.00,,,0.00,Wunderground v.1.15,2013-03-04 19:30:00,
2013-03-04 14:36:00,51.9,22.2,30.23,SSE,153,1.0,3.0,31,0.00,,,0.00,Wunderground v.1.15,2013-03-04 19:36:00,
2013-03-04 14:41:00,52.0,22.3,30.22,NW,305,1.0,1.0,31,0.00,,,0.00,Wunderground v.1.15,2013-03-04 19:41:00,
2013-03-04 14:51:00,52.6,24.3,30.22,SSE,161,1.0,1.0,33,0.00,,,0.00,Wunderground v.1.15,2013-03-04 19:51:00,
2013-03-04 14:56:00,52.7,24.4,30.22,ENE,75,1.0,3.0,33,0.00,,,0.00,Wunderground v.1.15,2013-03-04 19:56:00,
2013-03-04 15:02:00,52.6,26.4,30.22,NW,309,1.0,2.0,36,0.00,,,0.00,Wunderground v.1.15,2013-03-04 20:02:00,
2013-03-04 15:07:00,52.6,27.7,30.21,ENE,61,2.0,3.0,38,0.00,,,0.00,Wunderground v.1.15,2013-03-04 20:07:00,
2013-03-04 15:13:00,52.5,28.2,30.21,NW,306,2.0,4.0,39,0.00,,,0.00,Wunderground v.1.15,2013-03-04 20:13:00,
2013-03-04 15:19:00,52.5,28.8,30.21,North,10,2.0,4.0,40,0.00,,,0.00,Wunderground v.1.15,2013-03-04 20:19:00,
2013-03-04 15:24:00,52.4,29.4,30.21,ENE,58,2.0,4.0,41,0.00,,,0.00,Wunderground v.1.15,2013-03-04 20:24:00,
2013-03-04 15:30:00,52.3,31.0,30.21,South,190,2.0,2.0,44,0.00,,,0.00,Wunderground v.1.15,2013-03-04 20:30:00,
2013-03-04 15:36:00,52.3,32.1,30.21,East,81,1.0,3.0,46,0.00,,,0.00,Wunderground v.1.15,2013-03-04 20:36:00,
2013-03-04 15:41:00,52.3,31.6,30.21,WSW,251,2.0,3.0,45,0.00,,,0.00,Wunderground v.1.15,2013-03-04 20:41:00,
2013-03-04 15:51:00,52.4,32.7,30.20,West,265,1.0,1.0,47,0.00,,,0.00,Wunderground v.1.15,2013-03-04 20:51:00,
2013-03-04 15:56:00,52.6,32.9,30.20,NE,40,1.0,4.0,47,0.00,,,0.00,Wunderground v.1.15,2013-03-04 20:56:00,
2013-03-04 16:02:00,52.7,33.0,30.20,NW,323,1.0,1.0,47,0.00,,,0.00,Wunderground v.1.15,2013-03-04 21:02:00,
2013-03-04 16:07:00,52.7,33.0,30.20,ESE,112,1.0,3.0,47,0.00,,,0.00,Wunderground v.1.15,2013-03-04 21:07:00,
2013-03-04 16:13:00,52.8,32.0,30.20,SE,141,1.0,1.0,45,0.00,,,0.00,Wunderground v.1.15,2013-03-04 21:13:00,
2013-03-04 16:18:00,53.2,32.4,30.20,ENE,57,1.0,1.0,45,0.00,,,0.00,Wunderground v.1.15,2013-03-04 21:18:00,
2013-03-04 16:23:00,53.4,31.4,30.20,East,97,1.0,5.0,43,0.00,,,0.00,Wunderground v.1.15,2013-03-04 21:23:00,
2013-03-04 16:29:00,53.4,31.4,30.20,East,98,1.0,5.0,43,0.00,,,0.00,Wunderground v.1.15,2013-03-04 21:29:00,
2013-03-04 16:34:00,53.4,31.4,30.19,NW,321,1.0,2.0,43,0.00,,,0.00,Wunderground v.1.15,2013-03-04 21:34:00,
2013-03-04 16:39:00,53.6,29.2,30.19,SSW,194,1.0,2.0,39,0.00,,,0.00,Wunderground v.1.15,2013-03-04 21:39:00,
2013-03-04 16:44:00,53.2,26.2,30.19,East,92,1.0,4.0,35,0.00,,,0.00,Wunderground v.1.15,2013-03-04 21:44:00,
2013-03-04 16:51:00,52.6,26.4,30.19,East,90,1.0,2.0,36,0.00,,,0.00,Wunderground v.1.15,2013-03-04 21:51:00,
2013-03-04 16:56:00,52.2,26.0,30.19,East,89,1.0,5.0,36,0.00,,,0.00,Wunderground v.1.15,2013-03-04 21:56:00,
2013-03-04 17:02:00,51.9,25.1,30.20,SE,126,1.0,1.0,35,0.00,,,0.00,Wunderground v.1.15,2013-03-04 22:02:00,
2013-03-04 17:07:00,51.7,26.2,30.19,ESE,105,1.0,2.0,37,0.00,,,0.00,Wunderground v.1.15,2013-03-04 22:07:00,
2013-03-04 17:13:00,51.4,25.3,30.19,SW,224,1.0,2.0,36,0.00,,,0.00,Wunderground v.1.15,2013-03-04 22:13:00,
2013-03-04 17:18:00,51.3,25.9,30.19,SSW,207,0.0,2.0,37,0.00,,,0.00,Wunderground v.1.15,2013-03-04 22:18:00,
2013-03-04 17:24:00,51.2,25.8,30.19,ENE,71,1.0,4.0,37,0.00,,,0.00,Wunderground v.1.15,2013-03-04 22:24:00,
2013-03-04 17:30:00,51.0,25.0,30.20,ENE,71,0.0,0.0,36,0.00,,,0.00,Wunderground v.1.15,2013-03-04 22:30:00,
2013-03-04 17:35:00,50.9,25.5,30.21,ENE,71,0.0,0.0,37,0.00,,,0.00,Wunderground v.1.15,2013-03-04 22:35:00,
2013-03-04 17:41:00,50.9,26.2,30.21,WNW,294,0.0,1.0,38,0.00,,,0.00,Wunderground v.1.15,2013-03-04 22:41:00,
2013-03-04 17:51:00,50.6,26.5,30.20,East,86,0.0,1.0,39,0.00,,,0.00,Wunderground v.1.15,2013-03-04 22:51:00,
2013-03-04 17:56:00,50.5,25.8,30.20,East,90,0.0,5.0,38,0.00,,,0.00,Wunderground v.1.15,2013-03-04 22:56:00,
2013-03-04 18:02:00,50.4,25.7,30.20,East,90,0.0,0.0,38,0.00,,,0.00,Wunderground v.1.15,2013-03-04 23:02:00,
2013-03-04 18:08:00,50.2,26.2,30.20,East,90,0.0,0.0,39,0.00,,,0.00,Wunderground v.1.15,2013-03-04 23:08:00,
2013-03-04 18:13:00,49.7,26.9,30.20,East,90,0.0,1.0,41,0.00,,,0.00,Wunderground v.1.15,2013-03-04 23:13:00,
2013-03-04 18:19:00,49.2,27.6,30.20,East,90,0.0,1.0,43,0.00,,,0.00,Wunderground v.1.15,2013-03-04 23:19:00,
2013-03-04 18:24:00,48.6,27.6,30.20,NE,54,0.0,0.0,44,0.00,,,0.00,Wunderground v.1.15,2013-03-04 23:24:00,
2013-03-04 18:30:00,47.9,28.1,30.19,NE,46,0.0,1.0,46,0.00,,,0.00,Wunderground v.1.15,2013-03-04 23:30:00,
2013-03-04 18:36:00,47.0,28.3,30.20,NE,44,0.0,1.0,48,0.00,,,0.00,Wunderground v.1.15,2013-03-04 23:36:00,
2013-03-04 18:42:00,46.3,27.7,30.20,NE,34,0.0,2.0,48,0.00,,,0.00,Wunderground v.1.15,2013-03-04 23:42:00,
2013-03-04 18:51:00,45.7,28.1,30.20,NE,34,0.0,0.0,50,0.00,,,0.00,Wunderground v.1.15,2013-03-04 23:51:00,
2013-03-04 18:56:00,45.4,28.3,30.20,NE,34,0.0,1.0,51,0.00,,,0.00,Wunderground v.1.15,2013-03-04 23:56:00,
2013-03-04 19:02:00,45.1,28.5,30.20,NE,34,0.0,0.0,52,0.00,,,0.00,Wunderground v.1.15,2013-03-05 00:02:00,
2013-03-04 19:08:00,44.7,28.6,30.21,NNE,32,0.0,1.0,53,0.00,,,0.00,Wunderground v.1.15,2013-03-05 00:08:00,
2013-03-04 19:13:00,44.5,28.4,30.21,NNE,32,0.0,0.0,53,0.00,,,0.00,Wunderground v.1.15,2013-03-05 00:13:00,
2013-03-04 19:19:00,44.3,28.7,30.20,NNE,32,0.0,0.0,54,0.00,,,0.00,Wunderground v.1.15,2013-03-05 00:19:00,
2013-03-04 19:24:00,44.1,28.9,30.20,NNE,32,0.0,0.0,55,0.00,,,0.00,Wunderground v.1.15,2013-03-05 00:24:00,
2013-03-04 19:29:00,43.8,28.7,30.20,NNE,32,0.0,1.0,55,0.00,,,0.00,Wunderground v.1.15,2013-03-05 00:29:00,
2013-03-04 19:35:00,43.5,28.8,30.20,NNE,32,0.0,1.0,56,0.00,,,0.00,Wunderground v.1.15,2013-03-05 00:35:00,
2013-03-04 19:41:00,43.2,29.0,30.20,NNE,32,0.0,0.0,57,0.00,,,0.00,Wunderground v.1.15,2013-03-05 00:41:00,
2013-03-04 19:51:00,42.7,28.5,30.20,NNE,32,0.0,1.0,57,0.00,,,0.00,Wunderground v.1.15,2013-03-05 00:51:00,
2013-03-04 19:56:00,42.4,27.8,30.20,NNE,32,0.0,2.0,56,0.00,,,0.00,Wunderground v.1.15,2013-03-05 00:56:00,
2013-03-04 20:02:00,42.2,28.5,30.20,NNE,32,0.0,0.0,58,0.00,,,0.00,Wunderground v.1.15,2013-03-05 01:02:00,
2013-03-04 20:07:00,42.1,27.9,30.19,NNE,32,0.0,1.0,57,0.00,,,0.00,Wunderground v.1.15,2013-03-05 01:07:00,
2013-03-04 20:13:00,41.9,28.2,30.19,NNE,32,0.0,0.0,58,0.00,,,0.00,Wunderground v.1.15,2013-03-05 01:13:00,
2013-03-04 20:18:00,41.8,27.7,30.19,NNE,32,0.0,1.0,57,0.00,,,0.00,Wunderground v.1.15,2013-03-05 01:18:00,
2013-03-04 20:23:00,41.8,28.1,30.19,NNE,32,0.0,0.0,58,0.00,,,0.00,Wunderground v.1.15,2013-03-05 01:23:00,
2013-03-04 20:28:00,41.7,27.6,30.19,NNE,32,0.0,2.0,57,0.00,,,0.00,Wunderground v.1.15,2013-03-05 01:28:00,
2013-03-04 20:33:00,41.7,27.6,30.19,NNE,32,0.0,0.0,57,0.00,,,0.00,Wunderground v.1.15,2013-03-05 01:33:00,
2013-03-04 20:39:00,41.7,28.0,30.18,NNE,32,0.0,1.0,58,0.00,,,0.00,Wunderground v.1.15,2013-03-05 01:39:00,
2013-03-04 20:45:00,41.5,27.8,30.18,NNE,32,0.0,2.0,58,0.00,,,0.00,Wunderground v.1.15,2013-03-05 01:45:00,
2013-03-04 20:51:00,41.4,27.3,30.18,NNE,23,1.0,1.0,57,0.00,,,0.00,Wunderground v.1.15,2013-03-05 01:51:00,
2013-03-04 20:56:00,41.3,27.6,30.19,NNE,23,1.0,2.0,58,0.00,,,0.00,Wunderground v.1.15,2013-03-05 01:56:00,
2013-03-04 21:01:00,41.2,27.5,30.19,NNE,23,0.0,1.0,58,0.00,,,0.00,Wunderground v.1.15,2013-03-05 02:01:00,
2013-03-04 21:06:00,41.2,27.5,30.20,NNE,23,0.0,1.0,58,0.00,,,0.00,Wunderground v.1.15,2013-03-05 02:06:00,
2013-03-04 21:11:00,41.1,27.9,30.20,NNE,17,0.0,2.0,59,0.00,,,0.00,Wunderground v.1.15,2013-03-05 02:11:00,
2013-03-04 21:17:00,41.1,27.4,30.20,NNE,17,0.0,2.0,58,0.00,,,0.00,Wunderground v.1.15,2013-03-05 02:17:00,
2013-03-04 21:22:00,41.0,27.8,30.20,NNE,17,0.0,0.0,59,0.00,,,0.00,Wunderground v.1.15,2013-03-05 02:22:00,
2013-03-04 21:27:00,41.0,27.3,30.20,NNE,15,0.0,2.0,58,0.00,,,0.00,Wunderground v.1.15,2013-03-05 02:27:00,
2013-03-04 21:33:00,41.0,27.3,30.20,NNE,15,1.0,1.0,58,0.00,,,0.00,Wunderground v.1.15,2013-03-05 02:33:00,
2013-03-04 21:38:00,41.1,27.9,30.20,NNE,15,0.0,1.0,59,0.00,,,0.00,Wunderground v.1.15,2013-03-05 02:38:00,
2013-03-04 21:44:00,41.1,27.9,30.19,NNE,15,0.0,0.0,59,0.00,,,0.00,Wunderground v.1.15,2013-03-05 02:44:00,
2013-03-04 21:51:00,41.1,27.9,30.19,NNE,15,0.0,1.0,59,0.00,,,0.00,Wunderground v.1.15,2013-03-05 02:51:00,
2013-03-04 21:56:00,41.0,28.2,30.19,NNE,15,0.0,2.0,60,0.00,,,0.00,Wunderground v.1.15,2013-03-05 02:56:00,
2013-03-04 22:01:00,41.0,27.8,30.19,NNW,348,0.0,1.0,59,0.00,,,0.00,Wunderground v.1.15,2013-03-05 03:01:00,
2013-03-04 22:06:00,41.0,27.8,30.19,NNW,348,0.0,1.0,59,0.00,,,0.00,Wunderground v.1.15,2013-03-05 03:06:00,
2013-03-04 22:12:00,40.7,27.9,30.19,NNW,348,0.0,1.0,60,0.00,,,0.00,Wunderground v.1.15,2013-03-05 03:12:00,
2013-03-04 22:18:00,40.5,27.3,30.20,NNW,348,0.0,1.0,59,0.00,,,0.00,Wunderground v.1.15,2013-03-05 03:18:00,
2013-03-04 22:23:00,40.4,27.2,30.19,NNW,348,0.0,0.0,59,0.00,,,0.00,Wunderground v.1.15,2013-03-05 03:23:00,
2013-03-04 22:28:00,40.3,27.5,30.19,NNW,348,0.0,2.0,60,0.00,,,0.00,Wunderground v.1.15,2013-03-05 03:28:00,
2013-03-04 22:33:00,40.2,27.8,30.20,NNW,348,0.0,1.0,61,0.00,,,0.00,Wunderground v.1.15,2013-03-05 03:33:00,
2013-03-04 22:39:00,40.2,28.2,30.20,NNW,348,0.0,1.0,62,0.00,,,0.00,Wunderground v.1.15,2013-03-05 03:39:00,
2013-03-04 22:44:00,40.1,27.7,30.20,NNW,348,0.0,0.0,61,0.00,,,0.00,Wunderground v.1.15,2013-03-05 03:44:00,
2013-03-04 22:51:00,40.0,27.2,30.19,NNW,347,1.0,1.0,60,0.00,,,0.00,Wunderground v.1.15,2013-03-05 03:51:00,
2013-03-04 22:56:00,39.8,27.4,30.19,NNW,346,1.0,1.0,61,0.00,,,0.00,Wunderground v.1.15,2013-03-05 03:56:00,
2013-03-04 23:02:00,39.6,27.2,30.19,NNW,346,0.0,1.0,61,0.00,,,0.00,Wunderground v.1.15,2013-03-05 04:02:00,
2013-03-04 23:08:00,39.5,27.5,30.19,NNW,346,0.0,2.0,62,0.00,,,0.00,Wunderground v.1.15,2013-03-05 04:08:00,
2013-03-04 23:13:00,39.3,27.4,30.19,NNW,346,0.0,1.0,62,0.00,,,0.00,Wunderground v.1.15,2013-03-05 04:13:00,
2013-03-04 23:19:00,39.1,27.2,30.18,NNW,346,0.0,1.0,62,0.00,,,0.00,Wunderground v.1.15,2013-03-05 04:19:00,
2013-03-04 23:24:00,38.9,27.4,30.18,NNW,346,0.0,1.0,63,0.00,,,0.00,Wunderground v.1.15,2013-03-05 04:24:00,
2013-03-04 23:29:00,38.9,27.4,30.19,NNW,346,0.0,2.0,63,0.00,,,0.00,Wunderground v.1.15,2013-03-05 04:29:00,
2013-03-04 23:34:00,38.8,26.9,30.18,NNW,346,0.0,1.0,62,0.00,,,0.00,Wunderground v.1.15,2013-03-05 04:34:00,
2013-03-04 23:40:00,38.7,27.2,30.19,NNW,331,0.0,2.0,63,0.00,,,0.00,Wunderground v.1.15,2013-03-05 04:40:00,
2013-03-04 23:45:00,38.6,27.5,30.18,NNW,331,1.0,2.0,64,0.00,,,0.00,Wunderground v.1.15,2013-03-05 04:45:00,
2013-03-04 23:51:00,38.7,26.8,30.18,NNW,331,1.0,1.0,62,0.00,,,0.00,Wunderground v.1.15,2013-03-05 04:51:00,
2013-03-04 23:56:00,38.6,27.1,30.18,NNW,331,1.0,2.0,63,0.00,,,0.00,Wunderground v.1.15,2013-03-05 04:56:00,